sensor_id;sensor_type;location;lat;lon;timestamp;P1;durP1;ratioP1;P2;durP2;ratioP2
4569;SDS011;2297;51.442;6.996;2023-07-20T00:01:49;9.02;;;4.10;;
4569;SDS011;2297;51.442;6.996;2023-07-20T00:04:15;5.22;;;3.25;;
4569;SDS011;2297;51.442;6.996;2023-07-20T00:06:42;6.10;;;4.13;;
4569;SDS011;2297;51.442;6.996;2023-07-20T00:09:09;6.82;;;3.55;;
4569;SDS011;2297;51.442;6.996;2023-07-20T00:11:37;11.57;;;4.05;;
4569;SDS011;2297;51.442;6.996;2023-07-20T00:14:04;7.55;;;3.45;;
4569;SDS011;2297;51.442;6.996;2023-07-20T00:16:31;10.02;;;4.05;;
4569;SDS011;2297;51.442;6.996;2023-07-20T00:18:58;7.60;;;4.32;;
4569;SDS011;2297;51.442;6.996;2023-07-20T00:21:25;7.95;;;4.18;;
4569;SDS011;2297;51.442;6.996;2023-07-20T00:23:52;6.60;;;3.90;;
4569;SDS011;2297;51.442;6.996;2023-07-20T00:26:18;10.13;;;4.78;;
4569;SDS011;2297;51.442;6.996;2023-07-20T00:28:48;7.45;;;4.35;;
4569;SDS011;2297;51.442;6.996;2023-07-20T00:31:16;4.70;;;3.90;;
4569;SDS011;2297;51.442;6.996;2023-07-20T00:33:43;8.70;;;4.10;;
4569;SDS011;2297;51.442;6.996;2023-07-20T00:36:09;8.35;;;3.90;;
4569;SDS011;2297;51.442;6.996;2023-07-20T00:38:36;7.28;;;4.18;;
4569;SDS011;2297;51.442;6.996;2023-07-20T00:41:03;7.30;;;3.95;;
4569;SDS011;2297;51.442;6.996;2023-07-20T00:43:29;6.70;;;4.40;;
4569;SDS011;2297;51.442;6.996;2023-07-20T00:45:58;11.15;;;4.38;;
4569;SDS011;2297;51.442;6.996;2023-07-20T00:48:25;6.35;;;4.60;;
4569;SDS011;2297;51.442;6.996;2023-07-20T00:50:52;9.50;;;4.53;;
4569;SDS011;2297;51.442;6.996;2023-07-20T00:53:18;8.23;;;4.22;;
4569;SDS011;2297;51.442;6.996;2023-07-20T00:55:45;6.82;;;4.18;;
4569;SDS011;2297;51.442;6.996;2023-07-20T00:58:12;7.72;;;4.88;;
4569;SDS011;2297;51.442;6.996;2023-07-20T01:00:38;5.03;;;4.10;;
4569;SDS011;2297;51.442;6.996;2023-07-20T01:03:06;8.43;;;4.47;;
4569;SDS011;2297;51.442;6.996;2023-07-20T01:05:36;7.32;;;4.55;;
4569;SDS011;2297;51.442;6.996;2023-07-20T01:08:07;6.18;;;4.05;;
4569;SDS011;2297;51.442;6.996;2023-07-20T01:10:43;6.35;;;4.40;;
4569;SDS011;2297;51.442;6.996;2023-07-20T01:13:12;8.43;;;4.72;;
4569;SDS011;2297;51.442;6.996;2023-07-20T01:15:41;7.28;;;4.53;;
4569;SDS011;2297;51.442;6.996;2023-07-20T01:20:58;8.13;;;4.85;;
4569;SDS011;2297;51.442;6.996;2023-07-20T01:23:35;6.63;;;4.15;;
4569;SDS011;2297;51.442;6.996;2023-07-20T01:26:27;12.10;;;4.80;;
4569;SDS011;2297;51.442;6.996;2023-07-20T01:29:08;12.10;;;5.15;;
4569;SDS011;2297;51.442;6.996;2023-07-20T01:31:45;7.63;;;4.75;;
4569;SDS011;2297;51.442;6.996;2023-07-20T01:34:15;8.50;;;4.20;;
4569;SDS011;2297;51.442;6.996;2023-07-20T01:36:44;6.38;;;4.32;;
4569;SDS011;2297;51.442;6.996;2023-07-20T01:39:13;7.38;;;5.10;;
4569;SDS011;2297;51.442;6.996;2023-07-20T01:41:41;6.68;;;4.97;;
4569;SDS011;2297;51.442;6.996;2023-07-20T01:44:07;8.65;;;4.70;;
4569;SDS011;2297;51.442;6.996;2023-07-20T01:46:35;8.23;;;4.65;;
4569;SDS011;2297;51.442;6.996;2023-07-20T01:49:03;8.85;;;4.90;;
4569;SDS011;2297;51.442;6.996;2023-07-20T01:51:29;7.45;;;4.78;;
4569;SDS011;2297;51.442;6.996;2023-07-20T01:53:55;8.68;;;4.82;;
4569;SDS011;2297;51.442;6.996;2023-07-20T01:56:21;8.13;;;4.85;;
4569;SDS011;2297;51.442;6.996;2023-07-20T01:58:48;8.10;;;4.85;;
4569;SDS011;2297;51.442;6.996;2023-07-20T02:01:15;8.95;;;5.13;;
4569;SDS011;2297;51.442;6.996;2023-07-20T02:03:41;8.05;;;4.72;;
4569;SDS011;2297;51.442;6.996;2023-07-20T02:06:09;15.02;;;5.43;;
4569;SDS011;2297;51.442;6.996;2023-07-20T02:08:36;8.23;;;4.95;;
4569;SDS011;2297;51.442;6.996;2023-07-20T02:11:02;7.85;;;4.53;;
4569;SDS011;2297;51.442;6.996;2023-07-20T02:13:30;11.70;;;5.80;;
4569;SDS011;2297;51.442;6.996;2023-07-20T02:15:56;10.35;;;5.40;;
4569;SDS011;2297;51.442;6.996;2023-07-20T02:18:23;11.63;;;5.78;;
4569;SDS011;2297;51.442;6.996;2023-07-20T02:20:52;11.68;;;6.30;;
4569;SDS011;2297;51.442;6.996;2023-07-20T02:23:20;9.32;;;5.88;;
4569;SDS011;2297;51.442;6.996;2023-07-20T02:25:47;11.73;;;5.80;;
4569;SDS011;2297;51.442;6.996;2023-07-20T02:28:13;11.05;;;6.00;;
4569;SDS011;2297;51.442;6.996;2023-07-20T02:30:40;9.80;;;6.18;;
4569;SDS011;2297;51.442;6.996;2023-07-20T02:33:07;8.35;;;5.53;;
4569;SDS011;2297;51.442;6.996;2023-07-20T02:35:34;10.32;;;5.80;;
4569;SDS011;2297;51.442;6.996;2023-07-20T02:38:00;11.07;;;5.82;;
4569;SDS011;2297;51.442;6.996;2023-07-20T02:40:28;14.05;;;6.40;;
4569;SDS011;2297;51.442;6.996;2023-07-20T02:42:55;9.18;;;5.68;;
4569;SDS011;2297;51.442;6.996;2023-07-20T02:45:21;10.20;;;5.95;;
4569;SDS011;2297;51.442;6.996;2023-07-20T02:47:48;10.95;;;6.30;;
4569;SDS011;2297;51.442;6.996;2023-07-20T02:50:15;11.38;;;6.57;;
4569;SDS011;2297;51.442;6.996;2023-07-20T02:52:42;10.85;;;6.45;;
4569;SDS011;2297;51.442;6.996;2023-07-20T02:55:08;14.68;;;6.85;;
4569;SDS011;2297;51.442;6.996;2023-07-20T02:57:37;10.05;;;6.45;;
4569;SDS011;2297;51.442;6.996;2023-07-20T03:00:03;13.48;;;6.55;;
4569;SDS011;2297;51.442;6.996;2023-07-20T03:02:32;10.32;;;6.43;;
4569;SDS011;2297;51.442;6.996;2023-07-20T03:04:58;10.93;;;7.18;;
4569;SDS011;2297;51.442;6.996;2023-07-20T03:07:26;12.13;;;7.65;;
4569;SDS011;2297;51.442;6.996;2023-07-20T03:09:54;11.43;;;6.93;;
4569;SDS011;2297;51.442;6.996;2023-07-20T03:12:21;13.27;;;7.28;;
4569;SDS011;2297;51.442;6.996;2023-07-20T03:14:49;10.95;;;7.10;;
4569;SDS011;2297;51.442;6.996;2023-07-20T03:17:16;13.52;;;7.47;;
4569;SDS011;2297;51.442;6.996;2023-07-20T03:19:42;10.45;;;6.60;;
4569;SDS011;2297;51.442;6.996;2023-07-20T03:22:09;11.95;;;7.68;;
4569;SDS011;2297;51.442;6.996;2023-07-20T03:24:35;16.05;;;7.78;;
4569;SDS011;2297;51.442;6.996;2023-07-20T03:27:02;12.63;;;7.80;;
4569;SDS011;2297;51.442;6.996;2023-07-20T03:29:31;11.35;;;7.05;;
4569;SDS011;2297;51.442;6.996;2023-07-20T03:31:59;12.85;;;8.32;;
4569;SDS011;2297;51.442;6.996;2023-07-20T03:34:26;15.88;;;9.18;;
4569;SDS011;2297;51.442;6.996;2023-07-20T03:36:52;17.65;;;8.35;;
4569;SDS011;2297;51.442;6.996;2023-07-20T03:39:19;13.18;;;8.63;;
4569;SDS011;2297;51.442;6.996;2023-07-20T03:41:46;15.38;;;10.05;;
4569;SDS011;2297;51.442;6.996;2023-07-20T03:44:13;14.88;;;9.60;;
4569;SDS011;2297;51.442;6.996;2023-07-20T03:46:39;19.20;;;10.63;;
4569;SDS011;2297;51.442;6.996;2023-07-20T03:49:07;17.67;;;10.00;;
4569;SDS011;2297;51.442;6.996;2023-07-20T03:51:35;15.85;;;9.63;;
4569;SDS011;2297;51.442;6.996;2023-07-20T03:54:01;14.23;;;9.43;;
4569;SDS011;2297;51.442;6.996;2023-07-20T03:56:28;18.95;;;9.48;;
4569;SDS011;2297;51.442;6.996;2023-07-20T03:58:59;15.70;;;10.35;;
4569;SDS011;2297;51.442;6.996;2023-07-20T04:01:25;13.85;;;9.55;;
4569;SDS011;2297;51.442;6.996;2023-07-20T04:03:52;17.73;;;10.32;;
4569;SDS011;2297;51.442;6.996;2023-07-20T04:06:20;16.08;;;10.57;;
4569;SDS011;2297;51.442;6.996;2023-07-20T04:08:47;18.20;;;11.15;;
4569;SDS011;2297;51.442;6.996;2023-07-20T04:11:14;16.10;;;11.55;;
4569;SDS011;2297;51.442;6.996;2023-07-20T04:13:46;16.45;;;10.45;;
4569;SDS011;2297;51.442;6.996;2023-07-20T04:16:13;22.45;;;12.82;;
4569;SDS011;2297;51.442;6.996;2023-07-20T04:18:40;17.42;;;12.15;;
4569;SDS011;2297;51.442;6.996;2023-07-20T04:21:07;19.10;;;11.73;;
4569;SDS011;2297;51.442;6.996;2023-07-20T04:23:35;20.45;;;12.70;;
4569;SDS011;2297;51.442;6.996;2023-07-20T04:26:02;17.08;;;11.93;;
4569;SDS011;2297;51.442;6.996;2023-07-20T04:28:29;21.10;;;12.10;;
4569;SDS011;2297;51.442;6.996;2023-07-20T04:31:08;16.65;;;11.40;;
4569;SDS011;2297;51.442;6.996;2023-07-20T04:33:36;19.33;;;10.52;;
4569;SDS011;2297;51.442;6.996;2023-07-20T04:36:02;15.13;;;10.60;;
4569;SDS011;2297;51.442;6.996;2023-07-20T04:38:29;17.63;;;11.00;;
4569;SDS011;2297;51.442;6.996;2023-07-20T04:40:57;17.33;;;11.10;;
4569;SDS011;2297;51.442;6.996;2023-07-20T04:43:24;16.65;;;11.00;;
4569;SDS011;2297;51.442;6.996;2023-07-20T04:45:50;14.75;;;10.43;;
4569;SDS011;2297;51.442;6.996;2023-07-20T04:48:17;16.00;;;10.48;;
4569;SDS011;2297;51.442;6.996;2023-07-20T04:50:44;14.50;;;10.73;;
4569;SDS011;2297;51.442;6.996;2023-07-20T04:53:12;15.80;;;10.73;;
4569;SDS011;2297;51.442;6.996;2023-07-20T04:55:39;16.50;;;11.60;;
4569;SDS011;2297;51.442;6.996;2023-07-20T04:58:08;15.35;;;10.75;;
4569;SDS011;2297;51.442;6.996;2023-07-20T05:00:35;18.00;;;10.90;;
4569;SDS011;2297;51.442;6.996;2023-07-20T05:03:04;14.32;;;10.60;;
4569;SDS011;2297;51.442;6.996;2023-07-20T05:05:30;16.77;;;10.10;;
4569;SDS011;2297;51.442;6.996;2023-07-20T05:07:58;13.68;;;9.85;;
4569;SDS011;2297;51.442;6.996;2023-07-20T05:10:24;15.27;;;10.65;;
4569;SDS011;2297;51.442;6.996;2023-07-20T05:13:08;17.35;;;10.60;;
4569;SDS011;2297;51.442;6.996;2023-07-20T05:15:35;12.35;;;9.88;;
4569;SDS011;2297;51.442;6.996;2023-07-20T05:18:01;14.77;;;10.10;;
4569;SDS011;2297;51.442;6.996;2023-07-20T05:20:28;14.07;;;9.18;;
4569;SDS011;2297;51.442;6.996;2023-07-20T05:22:56;12.57;;;8.55;;
4569;SDS011;2297;51.442;6.996;2023-07-20T05:25:23;13.52;;;9.40;;
4569;SDS011;2297;51.442;6.996;2023-07-20T05:27:50;11.45;;;8.07;;
4569;SDS011;2297;51.442;6.996;2023-07-20T05:30:19;11.43;;;7.80;;
4569;SDS011;2297;51.442;6.996;2023-07-20T05:32:46;12.10;;;7.97;;
4569;SDS011;2297;51.442;6.996;2023-07-20T05:35:16;10.07;;;8.27;;
4569;SDS011;2297;51.442;6.996;2023-07-20T05:37:43;10.30;;;8.07;;
4569;SDS011;2297;51.442;6.996;2023-07-20T05:40:10;9.52;;;6.93;;
4569;SDS011;2297;51.442;6.996;2023-07-20T05:42:37;10.30;;;7.30;;
4569;SDS011;2297;51.442;6.996;2023-07-20T05:45:05;11.35;;;7.28;;
4569;SDS011;2297;51.442;6.996;2023-07-20T05:47:33;9.77;;;6.75;;
4569;SDS011;2297;51.442;6.996;2023-07-20T05:50:00;8.63;;;6.72;;
4569;SDS011;2297;51.442;6.996;2023-07-20T05:52:27;11.05;;;7.00;;
4569;SDS011;2297;51.442;6.996;2023-07-20T05:54:53;9.95;;;7.47;;
4569;SDS011;2297;51.442;6.996;2023-07-20T05:57:20;10.05;;;6.70;;
4569;SDS011;2297;51.442;6.996;2023-07-20T05:59:46;9.75;;;6.97;;
4569;SDS011;2297;51.442;6.996;2023-07-20T06:02:13;9.85;;;6.90;;
4569;SDS011;2297;51.442;6.996;2023-07-20T06:04:41;8.32;;;6.97;;
4569;SDS011;2297;51.442;6.996;2023-07-20T06:07:08;7.60;;;5.80;;
4569;SDS011;2297;51.442;6.996;2023-07-20T06:09:34;8.77;;;6.88;;
4569;SDS011;2297;51.442;6.996;2023-07-20T06:12:01;8.68;;;6.30;;
4569;SDS011;2297;51.442;6.996;2023-07-20T06:14:28;10.80;;;7.00;;
4569;SDS011;2297;51.442;6.996;2023-07-20T06:16:54;8.48;;;6.13;;
4569;SDS011;2297;51.442;6.996;2023-07-20T06:19:21;7.15;;;5.82;;
4569;SDS011;2297;51.442;6.996;2023-07-20T06:21:49;6.35;;;5.10;;
4569;SDS011;2297;51.442;6.996;2023-07-20T06:24:16;7.75;;;4.63;;
4569;SDS011;2297;51.442;6.996;2023-07-20T06:26:43;5.90;;;4.60;;
4569;SDS011;2297;51.442;6.996;2023-07-20T06:29:09;6.28;;;4.63;;
4569;SDS011;2297;51.442;6.996;2023-07-20T06:31:36;4.95;;;4.07;;
4569;SDS011;2297;51.442;6.996;2023-07-20T06:34:03;4.20;;;3.72;;
4569;SDS011;2297;51.442;6.996;2023-07-20T06:36:29;5.43;;;4.53;;
4569;SDS011;2297;51.442;6.996;2023-07-20T06:38:57;7.53;;;4.53;;
4569;SDS011;2297;51.442;6.996;2023-07-20T06:41:24;6.05;;;4.97;;
4569;SDS011;2297;51.442;6.996;2023-07-20T06:43:51;7.07;;;6.10;;
4569;SDS011;2297;51.442;6.996;2023-07-20T06:46:23;11.07;;;8.40;;
4569;SDS011;2297;51.442;6.996;2023-07-20T06:48:49;11.43;;;9.60;;
4569;SDS011;2297;51.442;6.996;2023-07-20T06:51:16;14.80;;;11.18;;
4569;SDS011;2297;51.442;6.996;2023-07-20T06:53:43;15.05;;;12.60;;
4569;SDS011;2297;51.442;6.996;2023-07-20T06:56:11;16.80;;;14.43;;
4569;SDS011;2297;51.442;6.996;2023-07-20T06:58:37;15.02;;;13.23;;
4569;SDS011;2297;51.442;6.996;2023-07-20T07:01:04;19.35;;;13.77;;
4569;SDS011;2297;51.442;6.996;2023-07-20T07:03:32;14.23;;;12.13;;
4569;SDS011;2297;51.442;6.996;2023-07-20T07:05:59;13.10;;;11.25;;
4569;SDS011;2297;51.442;6.996;2023-07-20T07:08:25;14.73;;;10.80;;
4569;SDS011;2297;51.442;6.996;2023-07-20T07:10:52;12.48;;;10.32;;
4569;SDS011;2297;51.442;6.996;2023-07-20T07:13:20;11.68;;;9.57;;
4569;SDS011;2297;51.442;6.996;2023-07-20T07:15:47;11.85;;;9.50;;
4569;SDS011;2297;51.442;6.996;2023-07-20T07:18:14;11.23;;;8.75;;
4569;SDS011;2297;51.442;6.996;2023-07-20T07:20:41;11.52;;;9.23;;
4569;SDS011;2297;51.442;6.996;2023-07-20T07:23:07;10.77;;;8.57;;
4569;SDS011;2297;51.442;6.996;2023-07-20T07:25:34;12.13;;;8.80;;
4569;SDS011;2297;51.442;6.996;2023-07-20T07:28:00;13.98;;;8.73;;
4569;SDS011;2297;51.442;6.996;2023-07-20T07:30:29;9.20;;;7.68;;
4569;SDS011;2297;51.442;6.996;2023-07-20T07:32:55;12.27;;;8.15;;
4569;SDS011;2297;51.442;6.996;2023-07-20T07:35:22;10.02;;;7.65;;
4569;SDS011;2297;51.442;6.996;2023-07-20T07:37:48;9.05;;;7.53;;
4569;SDS011;2297;51.442;6.996;2023-07-20T07:40:15;9.93;;;7.30;;
4569;SDS011;2297;51.442;6.996;2023-07-20T07:42:42;8.95;;;7.13;;
4569;SDS011;2297;51.442;6.996;2023-07-20T07:45:09;9.18;;;6.82;;
4569;SDS011;2297;51.442;6.996;2023-07-20T07:47:37;8.35;;;5.43;;
4569;SDS011;2297;51.442;6.996;2023-07-20T07:50:04;6.50;;;5.38;;
4569;SDS011;2297;51.442;6.996;2023-07-20T07:52:31;7.40;;;5.10;;
4569;SDS011;2297;51.442;6.996;2023-07-20T07:54:58;5.53;;;4.47;;
4569;SDS011;2297;51.442;6.996;2023-07-20T07:57:25;4.30;;;3.78;;
4569;SDS011;2297;51.442;6.996;2023-07-20T07:59:52;5.28;;;3.60;;
4569;SDS011;2297;51.442;6.996;2023-07-20T08:02:18;4.93;;;3.47;;
4569;SDS011;2297;51.442;6.996;2023-07-20T08:04:46;5.50;;;3.67;;
4569;SDS011;2297;51.442;6.996;2023-07-20T08:07:13;3.88;;;3.25;;
4569;SDS011;2297;51.442;6.996;2023-07-20T08:09:39;4.88;;;3.70;;
4569;SDS011;2297;51.442;6.996;2023-07-20T08:12:06;5.95;;;4.03;;
4569;SDS011;2297;51.442;6.996;2023-07-20T08:14:33;4.38;;;3.60;;
4569;SDS011;2297;51.442;6.996;2023-07-20T08:17:00;3.90;;;3.13;;
4569;SDS011;2297;51.442;6.996;2023-07-20T08:19:27;4.70;;;3.45;;
4569;SDS011;2297;51.442;6.996;2023-07-20T08:22:13;4.75;;;3.13;;
4569;SDS011;2297;51.442;6.996;2023-07-20T08:24:40;3.00;;;2.70;;
4569;SDS011;2297;51.442;6.996;2023-07-20T08:27:08;4.40;;;3.38;;
4569;SDS011;2297;51.442;6.996;2023-07-20T08:29:34;4.65;;;2.90;;
4569;SDS011;2297;51.442;6.996;2023-07-20T08:32:02;5.13;;;2.83;;
4569;SDS011;2297;51.442;6.996;2023-07-20T08:34:29;4.53;;;2.53;;
4569;SDS011;2297;51.442;6.996;2023-07-20T08:36:56;2.67;;;2.47;;
4569;SDS011;2297;51.442;6.996;2023-07-20T08:39:24;3.72;;;2.25;;
4569;SDS011;2297;51.442;6.996;2023-07-20T08:41:51;8.00;;;2.42;;
4569;SDS011;2297;51.442;6.996;2023-07-20T08:44:18;3.55;;;2.20;;
4569;SDS011;2297;51.442;6.996;2023-07-20T08:46:45;4.13;;;2.50;;
4569;SDS011;2297;51.442;6.996;2023-07-20T08:49:15;4.63;;;2.17;;
4569;SDS011;2297;51.442;6.996;2023-07-20T08:57:06;2.40;;;1.88;;
4569;SDS011;2297;51.442;6.996;2023-07-20T08:59:36;2.00;;;1.60;;
4569;SDS011;2297;51.442;6.996;2023-07-20T09:02:04;2.00;;;1.70;;
4569;SDS011;2297;51.442;6.996;2023-07-20T09:04:32;1.77;;;1.67;;
4569;SDS011;2297;51.442;6.996;2023-07-20T09:07:00;1.70;;;1.60;;
4569;SDS011;2297;51.442;6.996;2023-07-20T09:09:27;1.40;;;1.30;;
4569;SDS011;2297;51.442;6.996;2023-07-20T09:11:55;0.90;;;0.90;;
4569;SDS011;2297;51.442;6.996;2023-07-20T09:14:22;2.63;;;1.02;;
4569;SDS011;2297;51.442;6.996;2023-07-20T09:16:50;3.72;;;1.13;;
4569;SDS011;2297;51.442;6.996;2023-07-20T09:19:19;1.30;;;1.20;;
4569;SDS011;2297;51.442;6.996;2023-07-20T09:21:46;2.92;;;1.05;;
4569;SDS011;2297;51.442;6.996;2023-07-20T09:24:14;1.00;;;0.90;;
4569;SDS011;2297;51.442;6.996;2023-07-20T09:26:42;1.10;;;1.00;;
4569;SDS011;2297;51.442;6.996;2023-07-20T09:29:11;1.13;;;1.02;;
4569;SDS011;2297;51.442;6.996;2023-07-20T09:31:38;1.15;;;1.05;;
4569;SDS011;2297;51.442;6.996;2023-07-20T09:34:05;1.20;;;1.02;;
4569;SDS011;2297;51.442;6.996;2023-07-20T09:36:32;1.35;;;0.90;;
4569;SDS011;2297;51.442;6.996;2023-07-20T09:38:59;2.30;;;1.00;;
4569;SDS011;2297;51.442;6.996;2023-07-20T09:41:27;2.30;;;1.10;;
4569;SDS011;2297;51.442;6.996;2023-07-20T09:43:53;2.25;;;0.98;;
4569;SDS011;2297;51.442;6.996;2023-07-20T09:46:21;3.03;;;0.90;;
4569;SDS011;2297;51.442;6.996;2023-07-20T09:48:51;4.70;;;1.05;;
4569;SDS011;2297;51.442;6.996;2023-07-20T09:51:18;1.92;;;0.88;;
4569;SDS011;2297;51.442;6.996;2023-07-20T09:53:46;1.08;;;0.98;;
4569;SDS011;2297;51.442;6.996;2023-07-20T09:56:14;1.45;;;1.00;;
4569;SDS011;2297;51.442;6.996;2023-07-20T09:58:43;1.08;;;0.98;;
4569;SDS011;2297;51.442;6.996;2023-07-20T10:01:11;1.17;;;1.02;;
4569;SDS011;2297;51.442;6.996;2023-07-20T10:03:42;1.48;;;1.20;;
4569;SDS011;2297;51.442;6.996;2023-07-20T10:06:13;3.17;;;1.15;;
4569;SDS011;2297;51.442;6.996;2023-07-20T10:08:46;2.10;;;1.00;;
4569;SDS011;2297;51.442;6.996;2023-07-20T10:11:15;1.52;;;1.15;;
4569;SDS011;2297;51.442;6.996;2023-07-20T10:13:43;1.10;;;1.00;;
4569;SDS011;2297;51.442;6.996;2023-07-20T10:16:11;2.03;;;1.30;;
4569;SDS011;2297;51.442;6.996;2023-07-20T10:18:45;4.43;;;1.30;;
4569;SDS011;2297;51.442;6.996;2023-07-20T10:21:16;2.22;;;1.10;;
4569;SDS011;2297;51.442;6.996;2023-07-20T10:23:44;3.90;;;1.40;;
4569;SDS011;2297;51.442;6.996;2023-07-20T10:26:11;1.30;;;1.20;;
4569;SDS011;2297;51.442;6.996;2023-07-20T10:28:39;1.92;;;1.17;;
4569;SDS011;2297;51.442;6.996;2023-07-20T10:31:07;1.20;;;1.10;;
4569;SDS011;2297;51.442;6.996;2023-07-20T10:33:34;2.22;;;1.23;;
4569;SDS011;2297;51.442;6.996;2023-07-20T10:36:04;1.42;;;1.15;;
4569;SDS011;2297;51.442;6.996;2023-07-20T10:38:40;1.73;;;1.50;;
4569;SDS011;2297;51.442;6.996;2023-07-20T10:41:17;1.60;;;1.50;;
4569;SDS011;2297;51.442;6.996;2023-07-20T10:43:45;3.67;;;1.73;;
4569;SDS011;2297;51.442;6.996;2023-07-20T10:46:13;2.95;;;2.15;;
4569;SDS011;2297;51.442;6.996;2023-07-20T10:48:58;2.15;;;1.60;;
4569;SDS011;2297;51.442;6.996;2023-07-20T10:51:27;2.00;;;1.60;;
4569;SDS011;2297;51.442;6.996;2023-07-20T10:53:54;2.40;;;2.00;;
4569;SDS011;2297;51.442;6.996;2023-07-20T10:56:23;2.13;;;1.85;;
4569;SDS011;2297;51.442;6.996;2023-07-20T10:58:55;4.53;;;2.47;;
4569;SDS011;2297;51.442;6.996;2023-07-20T11:01:27;2.63;;;2.30;;
4569;SDS011;2297;51.442;6.996;2023-07-20T11:03:56;3.80;;;2.17;;
4569;SDS011;2297;51.442;6.996;2023-07-20T11:06:32;2.58;;;2.28;;
4569;SDS011;2297;51.442;6.996;2023-07-20T11:09:05;3.00;;;2.70;;
4569;SDS011;2297;51.442;6.996;2023-07-20T11:11:36;2.70;;;2.50;;
4569;SDS011;2297;51.442;6.996;2023-07-20T11:14:04;3.90;;;2.72;;
4569;SDS011;2297;51.442;6.996;2023-07-20T11:16:34;3.40;;;2.28;;
4569;SDS011;2297;51.442;6.996;2023-07-20T11:19:03;2.25;;;2.05;;
4569;SDS011;2297;51.442;6.996;2023-07-20T11:21:36;3.72;;;1.70;;
4569;SDS011;2297;51.442;6.996;2023-07-20T11:24:04;2.17;;;1.98;;
4569;SDS011;2297;51.442;6.996;2023-07-20T11:26:39;2.15;;;1.90;;
4569;SDS011;2297;51.442;6.996;2023-07-20T11:29:06;2.65;;;2.15;;
4569;SDS011;2297;51.442;6.996;2023-07-20T11:31:34;2.45;;;1.70;;
4569;SDS011;2297;51.442;6.996;2023-07-20T11:34:02;2.20;;;2.00;;
4569;SDS011;2297;51.442;6.996;2023-07-20T11:36:29;2.00;;;1.80;;
4569;SDS011;2297;51.442;6.996;2023-07-20T11:38:57;2.70;;;2.22;;
4569;SDS011;2297;51.442;6.996;2023-07-20T11:41:24;4.72;;;2.00;;
4569;SDS011;2297;51.442;6.996;2023-07-20T11:43:51;4.97;;;2.70;;
4569;SDS011;2297;51.442;6.996;2023-07-20T11:46:18;2.30;;;2.10;;
4569;SDS011;2297;51.442;6.996;2023-07-20T11:48:45;4.63;;;2.17;;
4569;SDS011;2297;51.442;6.996;2023-07-20T11:51:14;3.10;;;2.33;;
4569;SDS011;2297;51.442;6.996;2023-07-20T11:53:42;5.55;;;2.40;;
4569;SDS011;2297;51.442;6.996;2023-07-20T11:56:12;2.78;;;2.47;;
4569;SDS011;2297;51.442;6.996;2023-07-20T11:58:41;2.47;;;2.10;;
4569;SDS011;2297;51.442;6.996;2023-07-20T12:01:09;2.65;;;1.95;;
4569;SDS011;2297;51.442;6.996;2023-07-20T12:03:36;2.13;;;1.83;;
4569;SDS011;2297;51.442;6.996;2023-07-20T12:06:06;2.33;;;1.85;;
4569;SDS011;2297;51.442;6.996;2023-07-20T12:08:33;4.15;;;2.15;;
4569;SDS011;2297;51.442;6.996;2023-07-20T12:11:00;2.67;;;2.03;;
4569;SDS011;2297;51.442;6.996;2023-07-20T12:13:36;1.77;;;1.67;;
4569;SDS011;2297;51.442;6.996;2023-07-20T12:16:08;3.03;;;1.80;;
4569;SDS011;2297;51.442;6.996;2023-07-20T12:18:36;2.13;;;1.85;;
4569;SDS011;2297;51.442;6.996;2023-07-20T12:21:03;1.83;;;1.73;;
4569;SDS011;2297;51.442;6.996;2023-07-20T12:23:34;4.03;;;1.85;;
4569;SDS011;2297;51.442;6.996;2023-07-20T12:26:03;3.58;;;2.20;;
4569;SDS011;2297;51.442;6.996;2023-07-20T12:28:32;4.13;;;2.13;;
4569;SDS011;2297;51.442;6.996;2023-07-20T12:31:00;2.28;;;1.83;;
4569;SDS011;2297;51.442;6.996;2023-07-20T12:33:26;2.53;;;1.88;;
4569;SDS011;2297;51.442;6.996;2023-07-20T12:35:53;2.35;;;1.73;;
4569;SDS011;2297;51.442;6.996;2023-07-20T12:38:21;5.13;;;2.35;;
4569;SDS011;2297;51.442;6.996;2023-07-20T12:40:48;2.88;;;2.00;;
4569;SDS011;2297;51.442;6.996;2023-07-20T12:43:31;2.83;;;1.80;;
4569;SDS011;2297;51.442;6.996;2023-07-20T12:45:59;2.00;;;1.58;;
4569;SDS011;2297;51.442;6.996;2023-07-20T12:48:26;2.55;;;1.50;;
4569;SDS011;2297;51.442;6.996;2023-07-20T12:50:53;2.03;;;1.75;;
4569;SDS011;2297;51.442;6.996;2023-07-20T12:53:20;3.70;;;1.80;;
4569;SDS011;2297;51.442;6.996;2023-07-20T12:55:47;1.80;;;1.60;;
4569;SDS011;2297;51.442;6.996;2023-07-20T12:58:13;2.42;;;1.65;;
4569;SDS011;2297;51.442;6.996;2023-07-20T13:00:40;1.90;;;1.60;;
4569;SDS011;2297;51.442;6.996;2023-07-20T13:03:08;1.85;;;1.65;;
4569;SDS011;2297;51.442;6.996;2023-07-20T13:05:35;2.72;;;1.60;;
4569;SDS011;2297;51.442;6.996;2023-07-20T13:08:01;1.67;;;1.58;;
4569;SDS011;2297;51.442;6.996;2023-07-20T13:10:28;3.80;;;1.73;;
4569;SDS011;2297;51.442;6.996;2023-07-20T13:12:55;3.15;;;1.65;;
4569;SDS011;2297;51.442;6.996;2023-07-20T13:15:24;1.63;;;1.50;;
4569;SDS011;2297;51.442;6.996;2023-07-20T13:17:56;3.45;;;1.83;;
4569;SDS011;2297;51.442;6.996;2023-07-20T13:20:25;2.67;;;1.48;;
4569;SDS011;2297;51.442;6.996;2023-07-20T13:22:52;3.05;;;1.55;;
4569;SDS011;2297;51.442;6.996;2023-07-20T13:25:18;2.33;;;1.40;;
4569;SDS011;2297;51.442;6.996;2023-07-20T13:27:45;2.33;;;1.58;;
4569;SDS011;2297;51.442;6.996;2023-07-20T15:28:31;4.93;;;1.58;;
4569;SDS011;2297;51.442;6.996;2023-07-20T15:30:59;2.45;;;1.65;;
4569;SDS011;2297;51.442;6.996;2023-07-20T15:33:26;5.00;;;2.13;;
4569;SDS011;2297;51.442;6.996;2023-07-20T15:35:53;5.28;;;1.77;;
4569;SDS011;2297;51.442;6.996;2023-07-20T15:38:20;3.95;;;1.70;;
4569;SDS011;2297;51.442;6.996;2023-07-20T15:40:47;3.75;;;1.60;;
4569;SDS011;2297;51.442;6.996;2023-07-20T15:43:14;3.28;;;1.52;;
4569;SDS011;2297;51.442;6.996;2023-07-20T15:45:45;2.65;;;1.52;;
4569;SDS011;2297;51.442;6.996;2023-07-20T15:48:13;3.08;;;1.20;;
4569;SDS011;2297;51.442;6.996;2023-07-20T15:50:39;1.52;;;1.27;;
4569;SDS011;2297;51.442;6.996;2023-07-20T15:53:06;2.78;;;1.40;;
4569;SDS011;2297;51.442;6.996;2023-07-20T15:55:33;1.50;;;1.20;;
4569;SDS011;2297;51.442;6.996;2023-07-20T15:58:00;2.17;;;1.60;;
4569;SDS011;2297;51.442;6.996;2023-07-20T16:00:27;2.20;;;1.45;;
4569;SDS011;2297;51.442;6.996;2023-07-20T16:02:55;1.70;;;1.33;;
4569;SDS011;2297;51.442;6.996;2023-07-20T16:05:22;1.63;;;1.20;;
4569;SDS011;2297;51.442;6.996;2023-07-20T16:07:49;2.50;;;1.10;;
4569;SDS011;2297;51.442;6.996;2023-07-20T16:10:15;2.65;;;1.33;;
4569;SDS011;2297;51.442;6.996;2023-07-20T16:12:42;2.92;;;1.30;;
4569;SDS011;2297;51.442;6.996;2023-07-20T16:15:10;1.60;;;1.35;;
4569;SDS011;2297;51.442;6.996;2023-07-20T16:17:38;2.38;;;1.30;;
4569;SDS011;2297;51.442;6.996;2023-07-20T16:20:07;4.00;;;1.33;;
4569;SDS011;2297;51.442;6.996;2023-07-20T16:22:35;1.25;;;1.10;;
4569;SDS011;2297;51.442;6.996;2023-07-20T16:25:01;2.75;;;1.40;;
4569;SDS011;2297;51.442;6.996;2023-07-20T16:27:29;5.38;;;1.40;;
4569;SDS011;2297;51.442;6.996;2023-07-20T16:29:55;2.17;;;1.20;;
4569;SDS011;2297;51.442;6.996;2023-07-20T16:32:22;3.60;;;1.35;;
4569;SDS011;2297;51.442;6.996;2023-07-20T16:34:49;3.33;;;1.25;;
4569;SDS011;2297;51.442;6.996;2023-07-20T16:37:17;3.97;;;1.58;;
4569;SDS011;2297;51.442;6.996;2023-07-20T16:39:43;2.97;;;1.30;;
4569;SDS011;2297;51.442;6.996;2023-07-20T16:42:10;2.25;;;1.15;;
4569;SDS011;2297;51.442;6.996;2023-07-20T16:44:37;3.60;;;1.38;;
4569;SDS011;2297;51.442;6.996;2023-07-20T16:47:04;3.83;;;1.50;;
4569;SDS011;2297;51.442;6.996;2023-07-20T16:49:33;1.38;;;1.20;;
4569;SDS011;2297;51.442;6.996;2023-07-20T16:52:00;2.00;;;1.30;;
4569;SDS011;2297;51.442;6.996;2023-07-20T16:54:28;1.63;;;1.10;;
4569;SDS011;2297;51.442;6.996;2023-07-20T16:56:55;1.75;;;1.10;;
4569;SDS011;2297;51.442;6.996;2023-07-20T16:59:22;3.42;;;1.63;;
4569;SDS011;2297;51.442;6.996;2023-07-20T17:01:48;1.65;;;1.38;;
4569;SDS011;2297;51.442;6.996;2023-07-20T17:04:17;1.88;;;1.35;;
4569;SDS011;2297;51.442;6.996;2023-07-20T17:06:44;1.75;;;1.30;;
4569;SDS011;2297;51.442;6.996;2023-07-20T17:09:11;2.45;;;1.42;;
4569;SDS011;2297;51.442;6.996;2023-07-20T17:11:41;2.85;;;1.67;;
4569;SDS011;2297;51.442;6.996;2023-07-20T17:14:08;2.85;;;1.40;;
4569;SDS011;2297;51.442;6.996;2023-07-20T17:16:35;1.30;;;1.20;;
4569;SDS011;2297;51.442;6.996;2023-07-20T17:19:02;1.95;;;1.30;;
4569;SDS011;2297;51.442;6.996;2023-07-20T17:21:29;2.67;;;1.33;;